Lea County Regional Airport

Airport
ICAO code: 
KHOB
Summary
ICAO Region: 
NAM
Territory: 
Location: 
Hobbs, New Mexico,
Elevation: 
3661 ft
Coordinates: 
Aerial View: 
32° 41' 15" N, 103° 13' 0.991" W
Airport WX: 
Cumulonimbus
Metar
Observation
KHOB 040635Z AUTO 34010KT 10SM CLR 06/M03 A3011 RMK AO2
Station
Hobbs / Lea County
Date/Time
2021-12-04 06:35:00
Wind direction
340°
Wind speed
10 kts
Lowest cloud amount
n/a
Temperature
6°C
Dew point
-3°C
Humidity
52%
Weather condition
n/a

Description

Lea County Regional Airport, also known as Lea County-Hobbs Airport, is a public airport located 6.4 km west of the central business district of Hobbs, a city in Lea County, New Mexico.

Climatology

A semi-arid steppe climate (Köppen climate classification BSk), with generally cold, dry winters and hot summers. Late spring and early summer is on average the wettest period of the year.

Runways

Designator Length Width Surface Rops
17/35 1523 30 ASP Yes/Yes
12/30 1829 46 ASP Yes/Yes
3/21 2255 46 ASP Yes/Yes
Airport map: 
Aerial View: 

SKYbrary Partners:

Safety knowledge contributed by: